sensor_id;sensor_type;location;lat;lon;timestamp;pressure;altitude;pressure_sealevel;temperature;humidity
55217;BME280;41086;46.736;15.666;2023-01-28T00:02:21;98542.72;;;-2.59;100.00
55217;BME280;41086;46.736;15.666;2023-01-28T00:04:47;98545.34;;;-2.60;100.00
55217;BME280;41086;46.736;15.666;2023-01-28T00:07:14;98541.97;;;-2.67;100.00
55217;BME280;41086;46.736;15.666;2023-01-28T00:09:41;98531.69;;;-2.73;100.00
55217;BME280;41086;46.736;15.666;2023-01-28T00:12:07;98497.53;;;-3.04;100.00
55217;BME280;41086;46.736;15.666;2023-01-28T00:14:34;98497.63;;;-3.10;100.00
55217;BME280;41086;46.736;15.666;2023-01-28T00:17:04;98537.09;;;-2.87;100.00
55217;BME280;41086;46.736;15.666;2023-01-28T00:19:31;98510.59;;;-3.09;100.00
55217;BME280;41086;46.736;15.666;2023-01-28T00:21:57;98558.69;;;-2.88;100.00
55217;BME280;41086;46.736;15.666;2023-01-28T00:24:24;98536.56;;;-3.12;100.00
55217;BME280;41086;46.736;15.666;2023-01-28T00:26:51;98517.88;;;-3.39;100.00
55217;BME280;41086;46.736;15.666;2023-01-28T00:29:18;98563.28;;;-3.08;100.00
55217;BME280;41086;46.736;15.666;2023-01-28T00:31:45;98574.56;;;-3.13;100.00
55217;BME280;41086;46.736;15.666;2023-01-28T00:34:11;98576.34;;;-3.18;100.00
55217;BME280;41086;46.736;15.666;2023-01-28T00:36:39;98569.50;;;-3.22;100.00
55217;BME280;41086;46.736;15.666;2023-01-28T00:39:10;98565.13;;;-3.18;100.00
55217;BME280;41086;46.736;15.666;2023-01-28T00:41:40;98509.28;;;-3.44;100.00
55217;BME280;41086;46.736;15.666;2023-01-28T00:44:07;98516.84;;;-3.27;100.00
55217;BME280;41086;46.736;15.666;2023-01-28T00:46:34;98539.06;;;-3.06;100.00
55217;BME280;41086;46.736;15.666;2023-01-28T00:49:01;98539.03;;;-3.04;100.00
55217;BME280;41086;46.736;15.666;2023-01-28T00:51:28;98545.88;;;-2.99;100.00
55217;BME280;41086;46.736;15.666;2023-01-28T00:53:55;98563.22;;;-3.02;100.00
55217;BME280;41086;46.736;15.666;2023-01-28T00:56:22;98577.28;;;-3.20;100.00
55217;BME280;41086;46.736;15.666;2023-01-28T00:58:49;98570.44;;;-3.29;100.00
55217;BME280;41086;46.736;15.666;2023-01-28T01:01:22;98573.00;;;-3.26;100.00
55217;BME280;41086;46.736;15.666;2023-01-28T01:03:49;98579.06;;;-3.25;100.00
55217;BME280;41086;46.736;15.666;2023-01-28T01:06:35;98571.28;;;-3.28;100.00
55217;BME280;41086;46.736;15.666;2023-01-28T01:09:04;98574.00;;;-3.36;100.00
55217;BME280;41086;46.736;15.666;2023-01-28T01:11:34;98569.66;;;-3.36;100.00
55217;BME280;41086;46.736;15.666;2023-01-28T01:14:01;98573.06;;;-3.30;100.00
55217;BME280;41086;46.736;15.666;2023-01-28T01:16:31;98555.72;;;-3.25;100.00
55217;BME280;41086;46.736;15.666;2023-01-28T01:18:59;98567.69;;;-3.15;100.00
55217;BME280;41086;46.736;15.666;2023-01-28T01:21:27;98568.44;;;-3.04;100.00
55217;BME280;41086;46.736;15.666;2023-01-28T01:23:55;98571.78;;;-2.96;100.00
55217;BME280;41086;46.736;15.666;2023-01-28T01:26:22;98565.72;;;-2.96;100.00
55217;BME280;41086;46.736;15.666;2023-01-28T01:28:50;98563.97;;;-2.94;100.00
55217;BME280;41086;46.736;15.666;2023-01-28T01:31:20;98560.47;;;-2.90;100.00
55217;BME280;41086;46.736;15.666;2023-01-28T01:33:49;98565.56;;;-2.84;100.00
55217;BME280;41086;46.736;15.666;2023-01-28T01:36:16;98567.34;;;-2.89;100.00
55217;BME280;41086;46.736;15.666;2023-01-28T01:38:45;98558.81;;;-2.97;100.00
55217;BME280;41086;46.736;15.666;2023-01-28T01:41:23;98557.13;;;-3.01;100.00
55217;BME280;41086;46.736;15.666;2023-01-28T01:43:53;98566.59;;;-2.96;100.00
55217;BME280;41086;46.736;15.666;2023-01-28T01:46:26;98552.84;;;-3.02;100.00
55217;BME280;41086;46.736;15.666;2023-01-28T01:48:58;98502.25;;;-3.32;100.00
55217;BME280;41086;46.736;15.666;2023-01-28T01:51:30;98566.47;;;-2.88;100.00
55217;BME280;41086;46.736;15.666;2023-01-28T01:53:59;98564.81;;;-2.92;100.00
55217;BME280;41086;46.736;15.666;2023-01-28T01:56:29;98540.81;;;-3.09;100.00
55217;BME280;41086;46.736;15.666;2023-01-28T01:58:59;98555.31;;;-2.93;100.00
55217;BME280;41086;46.736;15.666;2023-01-28T02:01:28;98563.06;;;-2.92;100.00
55217;BME280;41086;46.736;15.666;2023-01-28T02:04:03;98559.69;;;-2.97;100.00
55217;BME280;41086;46.736;15.666;2023-01-28T02:06:32;98565.66;;;-2.92;100.00
55217;BME280;41086;46.736;15.666;2023-01-28T02:09:00;98509.94;;;-3.26;100.00
55217;BME280;41086;46.736;15.666;2023-01-28T02:11:29;98573.34;;;-2.85;100.00
55217;BME280;41086;46.736;15.666;2023-01-28T02:14:01;98568.22;;;-2.88;100.00
55217;BME280;41086;46.736;15.666;2023-01-28T02:16:30;98569.06;;;-2.86;100.00
55217;BME280;41086;46.736;15.666;2023-01-28T02:18:58;98406.97;;;-3.80;100.00
55217;BME280;41086;46.736;15.666;2023-01-28T02:28:11;98556.91;;;-2.83;100.00
55217;BME280;41086;46.736;15.666;2023-01-28T02:33:30;98542.41;;;-2.98;100.00
55217;BME280;41086;46.736;15.666;2023-01-28T02:36:11;98567.22;;;-2.78;100.00
55217;BME280;41086;46.736;15.666;2023-01-28T02:38:48;98575.84;;;-2.78;100.00
55217;BME280;41086;46.736;15.666;2023-01-28T02:41:22;98540.53;;;-2.88;100.00
55217;BME280;41086;46.736;15.666;2023-01-28T02:43:51;98569.75;;;-2.75;100.00
55217;BME280;41086;46.736;15.666;2023-01-28T02:49:13;98556.00;;;-2.80;100.00
55217;BME280;41086;46.736;15.666;2023-01-28T02:51:44;98581.69;;;-2.63;100.00
55217;BME280;41086;46.736;15.666;2023-01-28T02:59:28;98555.13;;;-2.79;100.00
55217;BME280;41086;46.736;15.666;2023-01-28T03:02:30;98581.69;;;-2.63;100.00
55217;BME280;41086;46.736;15.666;2023-01-28T03:05:24;98590.28;;;-2.58;100.00
55217;BME280;41086;46.736;15.666;2023-01-28T03:07:52;98586.84;;;-2.59;100.00
55217;BME280;41086;46.736;15.666;2023-01-28T03:10:22;98591.22;;;-2.62;100.00
55217;BME280;41086;46.736;15.666;2023-01-28T03:12:55;98587.69;;;-2.58;100.00
55217;BME280;41086;46.736;15.666;2023-01-28T03:15:47;98586.72;;;-2.53;100.00
55217;BME280;41086;46.736;15.666;2023-01-28T03:18:37;98586.69;;;-2.48;100.00
55217;BME280;41086;46.736;15.666;2023-01-28T03:21:33;98585.72;;;-2.42;100.00
55217;BME280;41086;46.736;15.666;2023-01-28T03:24:25;98596.16;;;-2.44;100.00
55217;BME280;41086;46.736;15.666;2023-01-28T03:27:17;98596.97;;;-2.42;100.00
55217;BME280;41086;46.736;15.666;2023-01-28T03:30:21;98526.56;;;-2.78;100.00
55217;BME280;41086;46.736;15.666;2023-01-28T03:33:14;98598.59;;;-2.33;100.00
55217;BME280;41086;46.736;15.666;2023-01-28T03:36:01;98595.94;;;-2.30;100.00
55217;BME280;41086;46.736;15.666;2023-01-28T03:38:46;98574.50;;;-2.41;100.00
55217;BME280;41086;46.736;15.666;2023-01-28T03:41:22;98586.47;;;-2.33;100.00
55217;BME280;41086;46.736;15.666;2023-01-28T03:43:52;98555.63;;;-2.54;100.00
55217;BME280;41086;46.736;15.666;2023-01-28T03:46:19;98582.13;;;-2.34;100.00
55217;BME280;41086;46.736;15.666;2023-01-28T03:48:45;98583.88;;;-2.33;100.00
55217;BME280;41086;46.736;15.666;2023-01-28T03:51:13;98590.81;;;-2.36;100.00
55217;BME280;41086;46.736;15.666;2023-01-28T03:53:40;98595.16;;;-2.35;100.00
55217;BME280;41086;46.736;15.666;2023-01-28T03:56:09;98578.84;;;-2.43;100.00
55217;BME280;41086;46.736;15.666;2023-01-28T03:58:44;98592.50;;;-2.32;100.00
55217;BME280;41086;46.736;15.666;2023-01-28T04:01:22;98577.03;;;-2.40;100.00
55217;BME280;41086;46.736;15.666;2023-01-28T04:03:50;98586.41;;;-2.30;100.00
55217;BME280;41086;46.736;15.666;2023-01-28T04:06:25;98592.44;;;-2.28;100.00
55217;BME280;41086;46.736;15.666;2023-01-28T04:09:05;98595.16;;;-2.35;100.00
55217;BME280;41086;46.736;15.666;2023-01-28T04:11:41;98592.47;;;-2.29;100.00
55217;BME280;41086;46.736;15.666;2023-01-28T04:14:12;98569.31;;;-2.45;100.00
55217;BME280;41086;46.736;15.666;2023-01-28T04:16:43;98593.25;;;-2.26;100.00
55217;BME280;41086;46.736;15.666;2023-01-28T04:19:11;98583.91;;;-2.36;100.00
55217;BME280;41086;46.736;15.666;2023-01-28T04:21:40;98608.81;;;-2.24;100.00
55217;BME280;41086;46.736;15.666;2023-01-28T04:24:08;98603.63;;;-2.24;100.00
55217;BME280;41086;46.736;15.666;2023-01-28T04:26:35;98608.81;;;-2.22;100.00
55217;BME280;41086;46.736;15.666;2023-01-28T04:29:03;98604.44;;;-2.20;100.00
55217;BME280;41086;46.736;15.666;2023-01-28T04:31:32;98583.00;;;-2.33;100.00
55217;BME280;41086;46.736;15.666;2023-01-28T04:34:16;98559.94;;;-2.52;100.00
55217;BME280;41086;46.736;15.666;2023-01-28T04:36:56;98606.28;;;-2.29;100.00
55217;BME280;41086;46.736;15.666;2023-01-28T04:39:39;98589.09;;;-2.36;100.00
55217;BME280;41086;46.736;15.666;2023-01-28T04:42:20;98618.31;;;-2.21;100.00
55217;BME280;41086;46.736;15.666;2023-01-28T04:45:05;98630.34;;;-2.17;100.00
55217;BME280;41086;46.736;15.666;2023-01-28T04:47:51;98626.03;;;-2.18;100.00
55217;BME280;41086;46.736;15.666;2023-01-28T04:50:41;98631.34;;;-2.25;100.00
55217;BME280;41086;46.736;15.666;2023-01-28T04:53:25;98608.13;;;-2.35;100.00
55217;BME280;41086;46.736;15.666;2023-01-28T04:56:06;98636.47;;;-2.21;100.00
55217;BME280;41086;46.736;15.666;2023-01-28T04:58:34;98642.56;;;-2.24;100.00
55217;BME280;41086;46.736;15.666;2023-01-28T05:01:07;98645.16;;;-2.24;100.00
55217;BME280;41086;46.736;15.666;2023-01-28T05:03:34;98646.81;;;-2.18;100.00
55217;BME280;41086;46.736;15.666;2023-01-28T05:06:02;98643.31;;;-2.14;100.00
55217;BME280;41086;46.736;15.666;2023-01-28T05:08:37;98652.84;;;-2.16;100.00
55217;BME280;41086;46.736;15.666;2023-01-28T05:11:04;98645.88;;;-2.13;100.00
55217;BME280;41086;46.736;15.666;2023-01-28T05:13:31;98651.06;;;-2.11;100.00
55217;BME280;41086;46.736;15.666;2023-01-28T05:15:58;98653.59;;;-2.10;100.00
55217;BME280;41086;46.736;15.666;2023-01-28T05:18:25;98655.34;;;-2.10;100.00
55217;BME280;41086;46.736;15.666;2023-01-28T05:21:10;98663.13;;;-2.10;100.00
55217;BME280;41086;46.736;15.666;2023-01-28T05:23:38;98634.78;;;-2.26;100.00
55217;BME280;41086;46.736;15.666;2023-01-28T05:26:05;98647.72;;;-2.21;100.00
55217;BME280;41086;46.736;15.666;2023-01-28T05:28:33;98663.13;;;-2.09;100.00
55217;BME280;41086;46.736;15.666;2023-01-28T05:31:04;98669.22;;;-2.11;100.00
55217;BME280;41086;46.736;15.666;2023-01-28T05:33:32;98672.63;;;-2.09;100.00
55217;BME280;41086;46.736;15.666;2023-01-28T05:36:00;98668.28;;;-2.07;100.00
55217;BME280;41086;46.736;15.666;2023-01-28T05:38:27;98636.59;;;-2.29;100.00
55217;BME280;41086;46.736;15.666;2023-01-28T05:40:54;98661.50;;;-2.14;100.00
55217;BME280;41086;46.736;15.666;2023-01-28T05:43:21;98668.34;;;-2.10;100.00
55217;BME280;41086;46.736;15.666;2023-01-28T05:46:03;98684.72;;;-2.07;100.00
55217;BME280;41086;46.736;15.666;2023-01-28T05:48:59;98682.22;;;-2.11;100.00
55217;BME280;41086;46.736;15.666;2023-01-28T05:51:45;98686.47;;;-2.07;100.00
55217;BME280;41086;46.736;15.666;2023-01-28T05:54:17;98689.13;;;-2.10;100.00
55217;BME280;41086;46.736;15.666;2023-01-28T05:56:44;98639.31;;;-2.38;100.00
55217;BME280;41086;46.736;15.666;2023-01-28T05:59:13;98643.63;;;-2.37;100.00
55217;BME280;41086;46.736;15.666;2023-01-28T06:01:42;98670.19;;;-2.18;100.00
55217;BME280;41086;46.736;15.666;2023-01-28T06:04:08;98662.50;;;-2.25;100.00
55217;BME280;41086;46.736;15.666;2023-01-28T06:06:35;98689.91;;;-2.05;100.00
55217;BME280;41086;46.736;15.666;2023-01-28T06:09:04;98690.75;;;-2.05;100.00
55217;BME280;41086;46.736;15.666;2023-01-28T06:11:31;98684.81;;;-2.11;100.00
55217;BME280;41086;46.736;15.666;2023-01-28T06:14:01;98685.72;;;-2.14;100.00
55217;BME280;41086;46.736;15.666;2023-01-28T06:16:49;98622.25;;;-2.55;100.00
55217;BME280;41086;46.736;15.666;2023-01-28T06:19:25;98705.53;;;-2.08;100.00
55217;BME280;41086;46.736;15.666;2023-01-28T06:21:52;98703.75;;;-2.05;100.00
55217;BME280;41086;46.736;15.666;2023-01-28T06:24:19;98699.44;;;-2.07;100.00
55217;BME280;41086;46.736;15.666;2023-01-28T06:26:46;98703.69;;;-2.02;100.00
55217;BME280;41086;46.736;15.666;2023-01-28T06:29:13;98720.13;;;-2.01;100.00
55217;BME280;41086;46.736;15.666;2023-01-28T06:31:40;98716.78;;;-2.06;100.00
55217;BME280;41086;46.736;15.666;2023-01-28T06:34:08;98670.44;;;-2.37;100.00
55217;BME280;41086;46.736;15.666;2023-01-28T06:36:35;98725.41;;;-2.06;100.00
55217;BME280;41086;46.736;15.666;2023-01-28T06:39:03;98717.63;;;-2.06;100.00
55217;BME280;41086;46.736;15.666;2023-01-28T06:41:30;98693.50;;;-2.15;100.00
55217;BME280;41086;46.736;15.666;2023-01-28T06:43:57;98719.22;;;-1.98;100.00
55217;BME280;41086;46.736;15.666;2023-01-28T06:46:24;98727.06;;;-2.00;100.00
55217;BME280;41086;46.736;15.666;2023-01-28T06:48:51;98607.78;;;-2.74;100.00
55217;BME280;41086;46.736;15.666;2023-01-28T06:51:18;98711.63;;;-2.11;100.00
55217;BME280;41086;46.736;15.666;2023-01-28T06:53:45;98715.19;;;-2.18;100.00
55217;BME280;41086;46.736;15.666;2023-01-28T06:56:14;98731.59;;;-2.14;100.00
55217;BME280;41086;46.736;15.666;2023-01-28T06:58:41;98714.41;;;-2.25;100.00
55217;BME280;41086;46.736;15.666;2023-01-28T07:01:08;98727.25;;;-2.14;100.00
55217;BME280;41086;46.736;15.666;2023-01-28T07:03:35;98723.81;;;-2.16;100.00
55217;BME280;41086;46.736;15.666;2023-01-28T07:06:02;98715.25;;;-2.22;100.00
55217;BME280;41086;46.736;15.666;2023-01-28T07:08:29;98731.50;;;-2.08;100.00
55217;BME280;41086;46.736;15.666;2023-01-28T07:10:56;98732.34;;;-2.06;100.00
55217;BME280;41086;46.736;15.666;2023-01-28T07:13:23;98669.59;;;-2.39;100.00
55217;BME280;41086;46.736;15.666;2023-01-28T07:15:50;98726.22;;;-2.02;100.00
55217;BME280;41086;46.736;15.666;2023-01-28T07:18:17;98754.66;;;-1.93;100.00
55217;BME280;41086;46.736;15.666;2023-01-28T07:20:44;98712.59;;;-2.18;100.00
55217;BME280;41086;46.736;15.666;2023-01-28T07:23:11;98749.53;;;-1.97;100.00
55217;BME280;41086;46.736;15.666;2023-01-28T07:25:38;98709.09;;;-2.15;100.00
55217;BME280;41086;46.736;15.666;2023-01-28T07:28:05;98752.03;;;-1.90;100.00
55217;BME280;41086;46.736;15.666;2023-01-28T07:30:32;98723.63;;;-2.02;100.00
55217;BME280;41086;46.736;15.666;2023-01-28T07:32:59;98754.53;;;-1.84;100.00
55217;BME280;41086;46.736;15.666;2023-01-28T07:35:26;98755.41;;;-1.85;100.00
55217;BME280;41086;46.736;15.666;2023-01-28T07:37:57;98754.59;;;-1.87;100.00
55217;BME280;41086;46.736;15.666;2023-01-28T07:40:26;98758.09;;;-1.89;100.00
55217;BME280;41086;46.736;15.666;2023-01-28T07:42:53;98745.22;;;-1.98;100.00
55217;BME280;41086;46.736;15.666;2023-01-28T07:45:23;98762.38;;;-1.87;100.00
55217;BME280;41086;46.736;15.666;2023-01-28T07:47:58;98741.81;;;-2.02;100.00
55217;BME280;41086;46.736;15.666;2023-01-28T07:50:27;98770.13;;;-1.85;100.00
55217;BME280;41086;46.736;15.666;2023-01-28T07:52:55;98763.13;;;-1.80;100.00
55217;BME280;41086;46.736;15.666;2023-01-28T07:55:23;98755.44;;;-1.88;100.00
55217;BME280;41086;46.736;15.666;2023-01-28T07:57:51;98760.53;;;-1.80;100.00
55217;BME280;41086;46.736;15.666;2023-01-28T08:00:20;98789.94;;;-1.76;100.00
55217;BME280;41086;46.736;15.666;2023-01-28T08:02:48;98783.81;;;-1.72;100.00
55217;BME280;41086;46.736;15.666;2023-01-28T08:05:15;98787.31;;;-1.75;100.00
55217;BME280;41086;46.736;15.666;2023-01-28T08:07:44;98754.53;;;-1.84;100.00
55217;BME280;41086;46.736;15.666;2023-01-28T08:10:15;98777.81;;;-1.76;100.00
55217;BME280;41086;46.736;15.666;2023-01-28T08:13:10;98793.28;;;-1.67;100.00
55217;BME280;41086;46.736;15.666;2023-01-28T08:15:38;98790.63;;;-1.64;100.00
55217;BME280;41086;46.736;15.666;2023-01-28T08:18:07;98793.22;;;-1.62;100.00
55217;BME280;41086;46.736;15.666;2023-01-28T08:20:35;98794.06;;;-1.62;100.00
55217;BME280;41086;46.736;15.666;2023-01-28T08:23:14;98771.72;;;-1.73;100.00
55217;BME280;41086;46.736;15.666;2023-01-28T08:25:41;98815.56;;;-1.50;100.00
55217;BME280;41086;46.736;15.666;2023-01-28T08:28:08;98819.81;;;-1.45;100.00
55217;BME280;41086;46.736;15.666;2023-01-28T08:30:36;98801.66;;;-1.49;100.00
55217;BME280;41086;46.736;15.666;2023-01-28T08:33:09;98837.56;;;-1.16;100.00
55217;BME280;41086;46.736;15.666;2023-01-28T08:35:36;98817.50;;;-1.09;100.00
55217;BME280;41086;46.736;15.666;2023-01-28T08:38:05;98839.72;;;-0.86;100.00
55217;BME280;41086;46.736;15.666;2023-01-28T08:40:32;98863.06;;;-0.83;100.00
55217;BME280;41086;46.736;15.666;2023-01-28T08:43:00;98856.78;;;-0.72;100.00
55217;BME280;41086;46.736;15.666;2023-01-28T08:45:27;98852.16;;;-0.54;100.00
55217;BME280;41086;46.736;15.666;2023-01-28T08:47:59;98861.38;;;-0.36;100.00
55217;BME280;41086;46.736;15.666;2023-01-28T08:50:29;98868.00;;;-0.20;100.00
55217;BME280;41086;46.736;15.666;2023-01-28T08:53:14;98857.25;;;-0.03;100.00
55217;BME280;41086;46.736;15.666;2023-01-28T08:55:42;98845.75;;;0.07;100.00
55217;BME280;41086;46.736;15.666;2023-01-28T08:58:11;98825.69;;;0.11;100.00
55217;BME280;41086;46.736;15.666;2023-01-28T09:00:40;98891.41;;;0.67;100.00
55217;BME280;41086;46.736;15.666;2023-01-28T09:03:07;98899.75;;;0.84;100.00
55217;BME280;41086;46.736;15.666;2023-01-28T09:05:34;98886.50;;;0.92;100.00
55217;BME280;41086;46.736;15.666;2023-01-28T09:08:03;98901.81;;;1.07;100.00
55217;BME280;41086;46.736;15.666;2023-01-28T09:10:31;98900.13;;;1.05;100.00
55217;BME280;41086;46.736;15.666;2023-01-28T09:12:58;98880.84;;;1.10;100.00
55217;BME280;41086;46.736;15.666;2023-01-28T09:15:25;98917.47;;;1.43;100.00
55217;BME280;41086;46.736;15.666;2023-01-28T09:17:56;98870.25;;;1.17;100.00
55217;BME280;41086;46.736;15.666;2023-01-28T09:20:24;98936.31;;;1.58;100.00
55217;BME280;41086;46.736;15.666;2023-01-28T09:22:51;98927.63;;;1.55;100.00
55217;BME280;41086;46.736;15.666;2023-01-28T09:25:18;98936.25;;;1.59;100.00
55217;BME280;41086;46.736;15.666;2023-01-28T09:27:45;98931.06;;;1.58;100.00
55217;BME280;41086;46.736;15.666;2023-01-28T09:30:12;98927.72;;;1.52;100.00
55217;BME280;41086;46.736;15.666;2023-01-28T09:32:39;98940.47;;;1.65;100.00
55217;BME280;41086;46.736;15.666;2023-01-28T09:35:07;98926.63;;;1.61;100.00
55217;BME280;41086;46.736;15.666;2023-01-28T09:37:33;98941.13;;;1.73;100.00
55217;BME280;41086;46.736;15.666;2023-01-28T09:40:01;98926.38;;;1.70;100.00
55217;BME280;41086;46.736;15.666;2023-01-28T09:42:42;98926.78;;;1.55;100.00
55217;BME280;41086;46.736;15.666;2023-01-28T09:47:55;98947.97;;;1.43;100.00
55217;BME280;41086;46.736;15.666;2023-01-28T09:50:41;98910.78;;;0.96;100.00
55217;BME280;41086;46.736;15.666;2023-01-28T09:53:30;98944.81;;;0.91;100.00
55217;BME280;41086;46.736;15.666;2023-01-28T09:56:03;98941.66;;;0.77;100.00
55217;BME280;41086;46.736;15.666;2023-01-28T09:58:31;98945.38;;;0.65;100.00
55217;BME280;41086;46.736;15.666;2023-01-28T10:01:21;98938.72;;;0.52;100.00
55217;BME280;41086;46.736;15.666;2023-01-28T10:07:55;98937.53;;;0.65;100.00
55217;BME280;41086;46.736;15.666;2023-01-28T10:10:13;98938.31;;;0.70;100.00
55217;BME280;41086;46.736;15.666;2023-01-28T10:13:00;98930.19;;;0.84;100.00
55217;BME280;41086;46.736;15.666;2023-01-28T10:18:34;98931.09;;;1.20;100.00
55217;BME280;41086;46.736;15.666;2023-01-28T10:23:59;98920.72;;;1.53;100.00
55217;BME280;41086;46.736;15.666;2023-01-28T10:26:34;98920.34;;;1.32;100.00
55217;BME280;41086;46.736;15.666;2023-01-28T10:29:12;98938.09;;;1.55;100.00
55217;BME280;41086;46.736;15.666;2023-01-28T10:31:51;98932.81;;;1.57;100.00
55217;BME280;41086;46.736;15.666;2023-01-28T10:34:20;98918.16;;;1.51;100.00
55217;BME280;41086;46.736;15.666;2023-01-28T10:36:48;98937.06;;;1.61;100.00
55217;BME280;41086;46.736;15.666;2023-01-28T10:39:20;98920.22;;;1.39;100.00
55217;BME280;41086;46.736;15.666;2023-01-28T10:41:48;98932.28;;;1.43;100.00
55217;BME280;41086;46.736;15.666;2023-01-28T10:44:44;98938.38;;;1.43;100.00
55217;BME280;41086;46.736;15.666;2023-01-28T10:47:33;98912.66;;;1.28;100.00
55217;BME280;41086;46.736;15.666;2023-01-28T10:50:06;98918.53;;;1.36;100.00
55217;BME280;41086;46.736;15.666;2023-01-28T10:52:59;98920.31;;;1.34;100.00
55217;BME280;41086;46.736;15.666;2023-01-28T10:55:35;98935.56;;;1.52;100.00
55217;BME280;41086;46.736;15.666;2023-01-28T11:01:49;98924.09;;;1.58;100.00
55217;BME280;41086;46.736;15.666;2023-01-28T11:04:26;98926.53;;;1.64;100.00
55217;BME280;41086;46.736;15.666;2023-01-28T11:09:35;98921.09;;;1.00;100.00
55217;BME280;41086;46.736;15.666;2023-01-28T11:12:20;98898.19;;;0.76;100.00
55217;BME280;41086;46.736;15.666;2023-01-28T11:17:26;98916.78;;;0.60;100.00
55217;BME280;41086;46.736;15.666;2023-01-28T11:19:57;98901.00;;;0.66;100.00
55217;BME280;41086;46.736;15.666;2023-01-28T11:22:41;98869.69;;;0.26;100.00
55217;BME280;41086;46.736;15.666;2023-01-28T11:25:37;98925.63;;;0.53;100.00
55217;BME280;41086;46.736;15.666;2023-01-28T11:28:07;98918.59;;;0.57;100.00
55217;BME280;41086;46.736;15.666;2023-01-28T11:30:41;98911.81;;;0.48;100.00
55217;BME280;41086;46.736;15.666;2023-01-28T11:33:25;98897.66;;;0.18;100.00
55217;BME280;41086;46.736;15.666;2023-01-28T11:38:30;98912.97;;;0.35;100.00
55217;BME280;41086;46.736;15.666;2023-01-28T11:40:57;98905.19;;;0.33;100.00
55217;BME280;41086;46.736;15.666;2023-01-28T11:43:28;98889.91;;;0.16;100.00
55217;BME280;41086;46.736;15.666;2023-01-28T12:13:39;98886.75;;;1.19;100.00
55217;BME280;41086;46.736;15.666;2023-01-28T12:21:38;98874.41;;;1.25;100.00
55217;BME280;41086;46.736;15.666;2023-01-28T12:35:27;98880.50;;;1.24;100.00
55217;BME280;41086;46.736;15.666;2023-01-28T12:43:13;98879.81;;;1.18;100.00
55217;BME280;41086;46.736;15.666;2023-01-28T12:45:46;98873.84;;;1.13;100.00
55217;BME280;41086;46.736;15.666;2023-01-28T12:56:14;98887.22;;;1.36;100.00
55217;BME280;41086;46.736;15.666;2023-01-28T13:01:17;98877.72;;;1.32;100.00
55217;BME280;41086;46.736;15.666;2023-01-28T13:03:55;98887.22;;;1.36;100.00
55217;BME280;41086;46.736;15.666;2023-01-28T13:09:16;98889.94;;;1.30;100.00
55217;BME280;41086;46.736;15.666;2023-01-28T13:11:46;98891.69;;;1.31;100.00
55217;BME280;41086;46.736;15.666;2023-01-28T13:14:15;98847.09;;;1.03;100.00
55217;BME280;41086;46.736;15.666;2023-01-28T13:16:42;98882.28;;;1.24;100.00
55217;BME280;41086;46.736;15.666;2023-01-28T13:21:46;98904.75;;;1.29;100.00
55217;BME280;41086;46.736;15.666;2023-01-28T13:26:50;98903.41;;;1.13;100.00
55217;BME280;41086;46.736;15.666;2023-01-28T13:31:53;98874.88;;;1.05;100.00
55217;BME280;41086;46.736;15.666;2023-01-28T13:34:34;98898.97;;;1.17;100.00
55217;BME280;41086;46.736;15.666;2023-01-28T13:37:14;98905.03;;;1.19;100.00
55217;BME280;41086;46.736;15.666;2023-01-28T13:40:01;98870.03;;;0.90;100.00
55217;BME280;41086;46.736;15.666;2023-01-28T13:42:30;98895.06;;;0.99;100.00
55217;BME280;41086;46.736;15.666;2023-01-28T13:47:46;98920.13;;;1.06;100.00
55217;BME280;41086;46.736;15.666;2023-01-28T13:50:22;98921.88;;;1.05;100.00
55217;BME280;41086;46.736;15.666;2023-01-28T13:53:03;98930.59;;;1.04;100.00
55217;BME280;41086;46.736;15.666;2023-01-28T13:55:37;98922.94;;;0.97;100.00
55217;BME280;41086;46.736;15.666;2023-01-28T13:58:29;98936.00;;;0.97;100.00
55217;BME280;41086;46.736;15.666;2023-01-28T14:01:12;98933.44;;;0.95;100.00
55217;BME280;41086;46.736;15.666;2023-01-28T14:06:53;98937.84;;;0.92;100.00
55217;BME280;41086;46.736;15.666;2023-01-28T14:17:43;98936.53;;;0.72;100.00
55217;BME280;41086;46.736;15.666;2023-01-28T14:20:19;98955.47;;;0.82;100.00
55217;BME280;41086;46.736;15.666;2023-01-28T14:22:48;98934.13;;;0.63;100.00
55217;BME280;41086;46.736;15.666;2023-01-28T14:26:07;98959.88;;;0.78;100.00
55217;BME280;41086;46.736;15.666;2023-01-28T14:28:10;98970.34;;;0.77;100.00
55217;BME280;41086;46.736;15.666;2023-01-28T14:30:47;98961.69;;;0.76;100.00
55217;BME280;41086;46.736;15.666;2023-01-28T14:33:16;98964.38;;;0.72;100.00
55217;BME280;41086;46.736;15.666;2023-01-28T14:35:44;98965.13;;;0.77;100.00
55217;BME280;41086;46.736;15.666;2023-01-28T14:38:16;98962.59;;;0.74;100.00
55217;BME280;41086;46.736;15.666;2023-01-28T14:40:43;98950.59;;;0.65;100.00
55217;BME280;41086;46.736;15.666;2023-01-28T14:43:14;98954.94;;;0.66;100.00
55217;BME280;41086;46.736;15.666;2023-01-28T14:51:39;98977.50;;;0.67;100.00
55217;BME280;41086;46.736;15.666;2023-01-28T14:54:46;98982.72;;;0.67;100.00
55217;BME280;41086;46.736;15.666;2023-01-28T14:57:51;98986.31;;;0.63;100.00
55217;BME280;41086;46.736;15.666;2023-01-28T15:00:25;98989.75;;;0.63;100.00
55217;BME280;41086;46.736;15.666;2023-01-28T15:02:52;98995.00;;;0.62;100.00
55217;BME280;41086;46.736;15.666;2023-01-28T15:05:23;98976.19;;;0.46;100.00
55217;BME280;41086;46.736;15.666;2023-01-28T15:07:51;98994.28;;;0.55;100.00
55217;BME280;41086;46.736;15.666;2023-01-28T15:10:26;98980.69;;;0.38;100.00
55217;BME280;41086;46.736;15.666;2023-01-28T15:13:03;98992.00;;;0.38;100.00
55217;BME280;41086;46.736;15.666;2023-01-28T15:15:36;98979.97;;;0.31;100.00
55217;BME280;41086;46.736;15.666;2023-01-28T15:18:14;99007.53;;;0.44;100.00
55217;BME280;41086;46.736;15.666;2023-01-28T15:20:50;99005.81;;;0.43;100.00
55217;BME280;41086;46.736;15.666;2023-01-28T15:23:24;98996.25;;;0.42;100.00